Time;durP1;ratioP1;P1;durP2;ratioP2;P2;SDS_P1;SDS_P2;PMS_P1;PMS_P2;Temp;Humidity;BMP_temperature;BMP_pressure;BME280_temperature;BME280_humidity;BME280_pressure;Samples;Min_cycle;Max_cycle;Signal;HPM_P1;HPM_P2
2023/04/19 00:00:08;;;;;;;6.83;6.13;;;;;;;9.19;100.00;100879.88;5003618;28;20201;-68
2023/04/19 00:02:34;;;;;;;6.30;5.70;;;;;;;9.19;100.00;100879.88;5011614;28;20186;-68
2023/04/19 00:05:00;;;;;;;6.03;5.43;;;;;;;9.22;100.00;100875.56;5028646;28;20183;-68
2023/04/19 00:07:26;;;;;;;6.57;5.90;;;;;;;9.22;100.00;100875.56;5031191;28;20199;-68
2023/04/19 00:09:51;;;;;;;7.67;5.87;;;;;;;9.30;100.00;100876.09;5034054;28;20186;-69
2023/04/19 00:12:16;;;;;;;6.43;5.50;;;;;;;9.25;100.00;100875.44;5018417;28;20252;-67
2023/04/19 00:14:42;;;;;;;6.40;5.73;;;;;;;9.28;100.00;100875.28;5012553;28;20286;-68
2023/04/19 00:17:07;;;;;;;6.57;5.97;;;;;;;9.33;100.00;100866.53;5011237;28;20186;-68
2023/04/19 00:19:32;;;;;;;6.30;5.50;;;;;;;9.34;100.00;100868.22;5012272;28;20191;-67
2023/04/19 00:21:57;;;;;;;6.30;5.70;;;;;;;9.31;100.00;100868.31;5020693;28;20230;-68
2023/04/19 00:24:23;;;;;;;5.83;5.33;;;;;;;9.37;100.00;100870.66;5012868;28;20191;-68
2023/04/19 00:26:48;;;;;;;5.50;5.00;;;;;;;9.46;100.00;100866.91;5012622;28;20595;-67
2023/04/19 00:29:13;;;;;;;5.73;4.87;;;;;;;9.47;100.00;100867.75;5024525;28;20185;-67
2023/04/19 00:31:38;;;;;;;6.80;6.17;;;;;;;9.46;100.00;100871.22;5020284;28;20222;-67
2023/04/19 00:34:05;;;;;;;7.30;5.60;;;;;;;9.51;100.00;100861.59;5019740;28;20190;-67
2023/04/19 00:36:30;;;;;;;6.53;5.10;;;;;;;9.51;100.00;100867.59;5012013;28;20214;-67
2023/04/19 00:38:55;;;;;;;6.07;5.47;;;;;;;9.50;100.00;100868.50;5011898;28;20209;-67
2023/04/19 00:41:21;;;;;;;6.10;5.33;;;;;;;9.47;100.00;100866.03;5016687;28;20636;-67
2023/04/19 00:43:46;;;;;;;5.57;5.07;;;;;;;9.48;100.00;100865.13;5014947;28;20185;-68
2023/04/19 00:46:13;;;;;;;5.90;5.40;;;;;;;9.50;100.00;100858.22;5028451;28;20184;-67
2023/04/19 00:48:39;;;;;;;5.87;5.37;;;;;;;9.51;100.00;100852.19;5020110;28;20182;-68
2023/04/19 00:51:05;;;;;;;6.63;5.90;;;;;;;9.43;100.00;100853.38;5009724;28;20695;-67
2023/04/19 00:53:30;;;;;;;6.27;5.67;;;;;;;9.46;100.00;100850.69;5019326;28;20270;-68
2023/04/19 00:55:58;;;;;;;6.10;4.90;;;;;;;9.53;100.00;100846.97;5011787;28;20194;-67
2023/04/19 00:58:24;;;;;;;6.97;6.07;;;;;;;9.68;100.00;100859.22;5012020;28;20210;-67
2023/04/19 01:00:49;;;;;;;6.77;5.83;;;;;;;9.64;100.00;100851.72;5007543;28;20214;-67
2023/04/19 01:03:15;;;;;;;6.47;5.80;;;;;;;9.52;100.00;100850.44;5032573;28;20189;-68
2023/04/19 01:05:41;;;;;;;6.57;5.97;;;;;;;9.46;100.00;100837.84;5018221;28;20598;-67
2023/04/19 01:08:07;;;;;;;5.50;5.00;;;;;;;9.48;100.00;100842.03;5019828;28;20183;-67
2023/04/19 01:10:32;;;;;;;6.97;6.27;;;;;;;9.48;100.00;100846.31;5005306;28;20260;-66
2023/04/19 01:12:58;;;;;;;5.93;5.23;;;;;;;9.47;100.00;100849.78;5030301;28;20173;-67
2023/04/19 01:15:23;;;;;;;6.23;5.63;;;;;;;9.50;100.00;100844.53;5018168;28;20202;-68
2023/04/19 01:17:48;;;;;;;6.40;5.80;;;;;;;9.52;100.00;100840.16;5019144;28;20179;-68
2023/04/19 01:20:14;;;;;;;6.87;6.27;;;;;;;9.60;100.00;100838.16;5017791;28;20183;-67
2023/04/19 01:22:39;;;;;;;8.27;6.27;;;;;;;9.54;100.00;100835.81;5025195;28;20281;-66
2023/04/19 01:25:06;;;;;;;6.27;5.67;;;;;;;9.46;100.00;100840.41;5026805;28;20186;-67
2023/04/19 01:27:31;;;;;;;6.70;6.13;;;;;;;9.45;100.00;100839.59;5011553;28;20182;-66
2023/04/19 01:29:57;;;;;;;7.50;6.80;;;;;;;9.45;100.00;100828.44;5006676;28;20533;-66
2023/04/19 01:32:22;;;;;;;7.23;6.53;;;;;;;9.55;100.00;100836.66;5018725;28;20290;-67
2023/04/19 01:34:49;;;;;;;6.77;6.17;;;;;;;9.47;100.00;100827.50;5013602;28;20183;-66
2023/04/19 01:37:15;;;;;;;8.17;6.97;;;;;;;9.52;100.00;100832.47;5011743;28;20262;-67
2023/04/19 01:39:40;;;;;;;7.37;6.53;;;;;;;9.52;100.00;100827.34;5023821;28;20293;-67
2023/04/19 01:42:05;;;;;;;8.30;7.50;;;;;;;9.46;100.00;100825.81;5019077;28;20615;-68
2023/04/19 01:44:30;;;;;;;7.40;6.73;;;;;;;9.51;100.00;100823.09;5011400;28;20182;-67
2023/04/19 01:46:56;;;;;;;7.33;6.73;;;;;;;9.58;100.00;100827.09;5011588;28;20182;-67
2023/04/19 01:49:21;;;;;;;7.80;7.00;;;;;;;9.52;100.00;100825.59;5026303;28;20250;-67
2023/04/19 01:51:46;;;;;;;7.70;7.10;;;;;;;9.50;100.00;100813.69;5015231;28;20632;-67
2023/04/19 01:54:11;;;;;;;7.37;6.67;;;;;;;9.44;100.00;100812.22;5013731;28;20190;-67
2023/04/19 01:56:37;;;;;;;8.20;7.40;;;;;;;9.39;100.00;100811.56;5011557;28;20722;-66
2023/04/19 01:59:03;;;;;;;7.87;7.17;;;;;;;9.47;100.00;100806.94;5010748;28;20179;-67
2023/04/19 02:01:28;;;;;;;8.47;7.67;;;;;;;9.54;100.00;100815.28;5012777;28;20783;-67
2023/04/19 02:03:53;;;;;;;8.23;7.37;;;;;;;9.55;100.00;100808.41;5016582;28;20189;-67
2023/04/19 02:06:19;;;;;;;8.43;7.63;;;;;;;9.44;100.00;100809.66;5011931;28;20233;-68
2023/04/19 02:08:44;;;;;;;9.27;8.47;;;;;;;9.52;100.00;100809.34;5010971;28;20662;-68
2023/04/19 02:11:13;;;;;;;8.57;7.67;;;;;;;9.47;100.00;100801.00;5010011;28;20249;-67
2023/04/19 02:13:38;;;;;;;8.07;7.37;;;;;;;9.53;100.00;100805.88;5027008;28;20590;-68
2023/04/19 02:16:04;;;;;;;8.73;7.87;;;;;;;9.49;100.00;100792.34;5011462;28;20290;-67
2023/04/19 02:18:30;;;;;;;9.97;9.07;;;;;;;9.40;100.00;100789.28;5039050;28;20520;-67
2023/04/19 02:20:56;;;;;;;9.17;8.10;;;;;;;9.37;100.00;100797.94;5014029;28;20283;-67
2023/04/19 02:23:21;;;;;;;9.37;8.43;;;;;;;9.36;100.00;100788.56;5037750;28;20183;-67
2023/04/19 02:25:47;;;;;;;9.00;8.07;;;;;;;9.35;100.00;100798.00;5013548;28;20186;-67
2023/04/19 02:28:12;;;;;;;9.20;8.30;;;;;;;9.42;100.00;100784.94;5015387;28;20192;-67
2023/04/19 02:30:37;;;;;;;9.17;8.13;;;;;;;9.34;100.00;100796.31;5017053;28;20228;-67
2023/04/19 02:33:02;;;;;;;9.70;8.70;;;;;;;9.34;100.00;100796.31;5012582;28;20244;-67
2023/04/19 02:35:28;;;;;;;9.93;8.93;;;;;;;9.40;100.00;100784.16;5014396;28;20246;-67
2023/04/19 02:37:53;;;;;;;10.50;9.07;;;;;;;9.42;100.00;100790.88;5014680;28;20194;-67
2023/04/19 02:40:18;;;;;;;10.33;8.90;;;;;;;9.29;100.00;100787.97;5005878;28;20195;-68
2023/04/19 02:42:44;;;;;;;9.77;8.77;;;;;;;9.35;100.00;100780.03;5014210;28;20569;-69
2023/04/19 02:45:09;;;;;;;10.33;9.33;;;;;;;9.26;100.00;100788.06;5022734;28;20186;-68
2023/04/19 02:47:34;;;;;;;10.00;9.00;;;;;;;9.28;100.00;100780.31;5032698;28;20179;-68
2023/04/19 02:50:00;;;;;;;9.50;8.50;;;;;;;9.28;100.00;100785.44;5023324;28;20272;-67
2023/04/19 02:52:26;;;;;;;10.53;9.53;;;;;;;9.31;100.00;100778.47;5018883;28;20214;-66
2023/04/19 02:54:52;;;;;;;10.60;9.60;;;;;;;9.33;100.00;100783.56;5022300;28;20189;-67
2023/04/19 02:57:17;;;;;;;9.50;8.50;;;;;;;9.34;100.00;100782.63;5029148;28;20549;-66
2023/04/19 02:59:42;;;;;;;10.27;9.17;;;;;;;9.31;100.00;100778.47;5013820;28;21005;-67
2023/04/19 03:02:07;;;;;;;9.70;8.77;;;;;;;9.30;100.00;100775.97;4992756;28;20226;-66
2023/04/19 03:04:33;;;;;;;10.17;9.17;;;;;;;9.34;100.00;100770.66;5023685;28;20592;-67
2023/04/19 03:06:58;;;;;;;10.43;9.43;;;;;;;9.35;100.00;100771.47;5030127;28;20174;-68
2023/04/19 03:09:24;;;;;;;9.83;8.63;;;;;;;9.29;100.00;100771.72;5022631;28;20193;-68
2023/04/19 03:11:50;;;;;;;10.87;9.77;;;;;;;9.32;100.00;100766.47;5007432;28;20221;-68
2023/04/19 03:14:15;;;;;;;10.40;9.40;;;;;;;9.29;100.00;100769.16;5020219;28;20182;-66
2023/04/19 03:16:40;;;;;;;10.37;9.37;;;;;;;9.27;100.00;100763.25;5016759;28;20390;-67
2023/04/19 03:19:05;;;;;;;11.33;10.10;;;;;;;9.31;100.00;100762.22;5005627;28;20202;-67
2023/04/19 03:21:31;;;;;;;10.87;9.43;;;;;;;9.29;100.00;100762.31;5017715;28;20344;-67
2023/04/19 03:23:56;;;;;;;9.93;8.97;;;;;;;9.33;100.00;100753.56;5035435;28;20688;-67
2023/04/19 03:26:21;;;;;;;10.50;9.43;;;;;;;9.22;100.00;100753.16;5037934;28;20190;-67
2023/04/19 03:28:47;;;;;;;12.47;9.93;;;;;;;9.29;100.00;100754.59;5013189;28;20210;-67
2023/04/19 03:31:12;;;;;;;11.57;9.43;;;;;;;9.28;100.00;100752.91;5000277;28;20237;-66
2023/04/19 03:33:38;;;;;;;14.40;10.67;;;;;;;9.29;100.00;100757.16;4995492;28;20183;-67
2023/04/19 03:36:03;;;;;;;11.37;9.90;;;;;;;9.35;100.00;100756.94;5012962;28;20209;-66
2023/04/19 03:38:29;;;;;;;10.80;9.63;;;;;;;9.27;100.00;100755.56;5013361;28;20588;-67
2023/04/19 03:40:56;;;;;;;11.73;10.53;;;;;;;9.21;100.00;100748.91;5009503;28;20712;-68
2023/04/19 03:43:21;;;;;;;11.40;9.67;;;;;;;9.26;100.00;100747.00;5020442;28;20182;-66
2023/04/19 03:45:46;;;;;;;13.20;10.60;;;;;;;9.33;100.00;100747.63;5017581;28;20197;-67
2023/04/19 03:48:12;;;;;;;9.83;8.90;;;;;;;9.43;100.00;100748.91;5013283;28;20175;-67
2023/04/19 03:50:37;;;;;;;11.40;10.13;;;;;;;9.41;100.00;100744.75;5007669;28;20253;-67
2023/04/19 03:53:04;;;;;;;11.50;10.33;;;;;;;9.34;100.00;100747.53;5024718;28;20186;-67
2023/04/19 03:55:29;;;;;;;10.97;9.87;;;;;;;9.27;100.00;100742.72;5029210;28;20627;-68
2023/04/19 03:57:54;;;;;;;10.87;9.00;;;;;;;9.30;100.00;100737.44;5013787;28;20174;-67
2023/04/19 04:00:20;;;;;;;10.27;9.27;;;;;;;9.20;100.00;100740.38;5005334;28;20187;-67
2023/04/19 04:02:45;;;;;;;10.90;9.90;;;;;;;9.19;100.00;100737.84;5026684;28;20179;-66
2023/04/19 04:05:10;;;;;;;10.40;9.40;;;;;;;9.22;100.00;100739.50;5014600;28;20186;-67
2023/04/19 04:07:36;;;;;;;10.63;9.53;;;;;;;9.26;100.00;100736.72;5012772;28;20186;-67
2023/04/19 04:10:01;;;;;;;11.13;9.47;;;;;;;9.22;100.00;100742.06;5027567;28;20182;-68
2023/04/19 04:12:26;;;;;;;9.40;8.33;;;;;;;9.12;100.00;100736.44;5020486;28;20561;-66
2023/04/19 04:14:51;;;;;;;10.63;9.20;;;;;;;9.15;100.00;100744.88;5012616;28;20190;-67
2023/04/19 04:17:17;;;;;;;10.67;9.40;;;;;;;9.23;100.00;100743.72;5012750;28;20183;-67
2023/04/19 04:19:42;;;;;;;10.10;9.20;;;;;;;9.30;100.00;100742.59;5011774;28;20642;-66
2023/04/19 04:22:07;;;;;;;9.83;8.83;;;;;;;9.30;100.00;100748.56;5019164;28;20308;-66
2023/04/19 04:24:43;;;;;;;10.10;9.10;;;;;;;9.14;100.00;100750.88;5012344;28;20206;-65
2023/04/19 04:27:09;;;;;;;10.07;9.00;;;;;;;9.09;100.00;100746.81;5006703;28;20228;-66
2023/04/19 04:29:38;;;;;;;10.33;8.90;;;;;;;9.06;100.00;100746.94;5015822;28;20182;-66
2023/04/19 04:32:07;;;;;;;10.90;9.80;;;;;;;9.07;100.00;100749.44;5019366;28;20272;-68
2023/04/19 04:34:33;;;;;;;9.77;8.77;;;;;;;9.02;100.00;100748.78;5013115;28;20175;-67
2023/04/19 04:36:58;;;;;;;9.80;8.80;;;;;;;9.00;100.00;100750.56;5012238;28;20241;-68
2023/04/19 04:39:23;;;;;;;10.00;9.00;;;;;;;8.99;100.00;100754.88;5014023;28;20175;-68
2023/04/19 04:41:50;;;;;;;10.83;9.33;;;;;;;9.04;100.00;100755.53;5023142;28;20233;-68
2023/04/19 04:44:15;;;;;;;10.10;9.07;;;;;;;9.10;100.00;100759.56;5016923;28;20511;-67
2023/04/19 04:46:41;;;;;;;9.40;8.50;;;;;;;9.03;100.00;100753.84;5027310;28;20182;-67
2023/04/19 04:49:06;;;;;;;10.40;9.33;;;;;;;9.13;100.00;100754.34;5011210;28;20231;-66
2023/04/19 04:51:31;;;;;;;9.97;8.93;;;;;;;9.06;100.00;100758.03;5013459;28;20218;-66
2023/04/19 04:53:57;;;;;;;10.87;9.77;;;;;;;9.08;100.00;100760.53;5015539;28;20182;-66
2023/04/19 04:56:22;;;;;;;11.03;9.40;;;;;;;9.09;100.00;100757.94;5012071;28;20253;-66
2023/04/19 04:58:47;;;;;;;11.10;9.33;;;;;;;9.15;100.00;100757.69;5008977;28;20854;-66
2023/04/19 05:01:13;;;;;;;9.97;9.07;;;;;;;9.20;100.00;100753.22;5018984;28;20283;-66
2023/04/19 05:03:38;;;;;;;11.73;9.40;;;;;;;9.17;100.00;100747.38;5037551;28;20217;-67
2023/04/19 05:06:04;;;;;;;10.30;9.30;;;;;;;9.20;100.00;100748.09;5023318;28;20205;-67
2023/04/19 05:08:29;;;;;;;10.80;9.70;;;;;;;9.22;100.00;100753.16;5011172;28;20333;-66
2023/04/19 05:10:54;;;;;;;10.77;9.63;;;;;;;9.29;100.00;100753.75;5019344;28;20228;-67
2023/04/19 05:13:20;;;;;;;12.93;10.43;;;;;;;9.44;100.00;100752.31;5034478;28;20658;-67
2023/04/19 05:15:45;;;;;;;11.17;9.97;;;;;;;9.43;100.00;100741.22;5030839;28;20201;-68
2023/04/19 05:18:10;;;;;;;11.67;10.57;;;;;;;9.45;100.00;100744.56;5016535;28;20673;-67
2023/04/19 05:20:36;;;;;;;13.53;11.40;;;;;;;9.45;100.00;100746.28;5005138;28;20230;-67
2023/04/19 05:23:02;;;;;;;12.37;10.87;;;;;;;9.49;100.00;100750.41;5019842;28;20182;-67
2023/04/19 05:25:28;;;;;;;11.70;10.40;;;;;;;9.49;100.00;100742.72;5018004;28;20265;-67
2023/04/19 05:27:53;;;;;;;13.27;11.83;;;;;;;9.48;100.00;100738.47;5013075;28;20607;-67
2023/04/19 05:30:18;;;;;;;12.60;11.40;;;;;;;9.45;100.00;100742.00;5007472;28;20186;-66
2023/04/19 05:32:44;;;;;;;12.30;11.17;;;;;;;9.47;100.00;100741.94;5027493;28;20190;-68
2023/04/19 05:35:10;;;;;;;12.77;11.47;;;;;;;9.46;100.00;100745.38;5017645;28;20665;-68
2023/04/19 05:37:35;;;;;;;12.40;11.20;;;;;;;9.48;100.00;100749.56;5016599;28;20519;-66
2023/04/19 05:40:04;;;;;;;12.57;11.30;;;;;;;9.53;100.00;100742.50;5017131;28;20174;-67
2023/04/19 05:42:29;;;;;;;13.87;11.13;;;;;;;9.68;100.00;100742.81;5021871;28;20745;-67
2023/04/19 05:44:55;;;;;;;15.07;12.17;;;;;;;9.65;100.00;100746.34;5011437;28;20183;-68
2023/04/19 05:47:20;;;;;;;12.93;11.63;;;;;;;9.56;100.00;100733.03;5039724;28;20186;-67
2023/04/19 05:49:45;;;;;;;13.13;11.37;;;;;;;9.60;100.00;100737.13;5030491;28;20259;-67
2023/04/19 05:52:10;;;;;;;12.87;11.53;;;;;;;9.66;100.00;100735.16;5019001;28;20708;-67
2023/04/19 05:54:36;;;;;;;12.73;11.40;;;;;;;9.70;100.00;100735.88;5024844;28;20221;-67
2023/04/19 05:57:02;;;;;;;15.17;11.40;;;;;;;9.78;100.00;100741.50;5026645;28;20202;-66
2023/04/19 05:59:27;;;;;;;12.27;11.00;;;;;;;9.79;100.00;100738.06;5020415;28;20252;-68
2023/04/19 06:01:54;;;;;;;14.53;11.33;;;;;;;9.75;100.00;100749.38;5022822;28;20246;-67
2023/04/19 06:04:20;;;;;;;12.57;10.83;;;;;;;9.84;100.00;100741.25;5015528;28;20174;-67
2023/04/19 06:06:45;;;;;;;13.23;11.83;;;;;;;9.91;100.00;100741.88;5014567;28;20236;-67
2023/04/19 06:09:12;;;;;;;13.40;12.10;;;;;;;9.96;100.00;100739.09;5013456;28;20179;-67
2023/04/19 06:11:37;;;;;;;13.03;11.23;;;;;;;10.11;100.00;100745.31;5016807;28;20684;-66
2023/04/19 06:14:04;;;;;;;11.57;10.47;;;;;;;10.34;100.00;100734.91;5020656;28;20188;-65
2023/04/19 06:16:29;;;;;;;12.53;11.23;;;;;;;10.45;100.00;100737.03;5020758;28;20352;-67
2023/04/19 06:18:55;;;;;;;12.40;10.40;;;;;;;10.55;100.00;100740.03;5033670;28;20269;-67
2023/04/19 06:21:20;;;;;;;12.60;10.77;;;;;;;10.79;100.00;100737.25;5025066;28;20826;-66
2023/04/19 06:23:46;;;;;;;11.77;10.67;;;;;;;10.85;100.00;100736.16;5032869;28;20202;-66
2023/04/19 06:26:11;;;;;;;11.87;10.80;;;;;;;10.76;100.00;100740.81;5023355;28;20182;-68
2023/04/19 06:28:36;;;;;;;12.10;10.87;;;;;;;10.52;100.00;100747.03;5014706;28;20633;-66
2023/04/19 06:31:01;;;;;;;11.20;10.03;;;;;;;10.45;100.00;100743.91;5016060;28;20232;-67
2023/04/19 06:33:27;;;;;;;11.73;10.53;;;;;;;10.50;100.00;100744.53;5024295;28;20271;-67
2023/04/19 06:35:52;;;;;;;12.03;10.67;;;;;;;10.59;100.00;100745.88;5031547;28;20269;-67
2023/04/19 06:38:17;;;;;;;11.53;10.37;;;;;;;10.59;100.00;100744.16;5021312;28;20233;-67
2023/04/19 06:40:42;;;;;;;11.00;9.83;;;;;;;10.48;100.00;100743.75;5015300;28;20237;-68
2023/04/19 06:43:08;;;;;;;11.17;10.10;;;;;;;10.55;100.00;100750.31;5009682;28;20221;-65
2023/04/19 06:45:33;;;;;;;11.53;10.40;;;;;;;10.52;100.00;100750.47;5007796;28;20198;-66
2023/04/19 06:47:58;;;;;;;10.33;9.33;;;;;;;10.47;100.00;100745.50;5014103;28;20174;-66
2023/04/19 06:50:23;;;;;;;11.67;9.70;;;;;;;10.56;100.00;100743.44;5006374;28;20241;-66
2023/04/19 06:52:49;;;;;;;9.80;8.80;;;;;;;10.52;100.00;100750.47;5027446;28;20659;-66
2023/04/19 06:55:14;;;;;;;10.73;9.73;;;;;;;10.46;100.00;100750.72;5014124;28;20674;-66
2023/04/19 06:57:41;;;;;;;10.90;9.00;;;;;;;10.34;100.00;100749.47;5012981;28;20272;-67
2023/04/19 07:00:07;;;;;;;9.50;8.50;;;;;;;10.43;100.00;100753.41;4993665;28;20233;-67
2023/04/19 07:02:32;;;;;;;9.77;8.80;;;;;;;10.45;100.00;100749.06;5028043;28;20218;-66
2023/04/19 07:04:57;;;;;;;10.83;9.13;;;;;;;10.41;100.00;100750.09;5014187;28;20201;-67
2023/04/19 07:07:23;;;;;;;10.57;9.57;;;;;;;10.31;100.00;100753.03;5013384;28;20285;-66
2023/04/19 07:09:48;;;;;;;9.83;8.70;;;;;;;10.42;100.00;100747.47;5013449;28;20615;-66
2023/04/19 07:12:13;;;;;;;10.43;9.43;;;;;;;10.58;100.00;100746.75;5003824;28;20233;-67
2023/04/19 07:14:38;;;;;;;9.60;8.70;;;;;;;10.53;100.00;100741.84;5013830;28;20190;-66
2023/04/19 07:17:04;;;;;;;9.47;8.57;;;;;;;10.44;100.00;100740.50;5024985;28;20225;-67
2023/04/19 07:19:30;;;;;;;9.30;8.40;;;;;;;10.45;100.00;100741.34;5020273;28;20179;-67
2023/04/19 07:21:55;;;;;;;11.20;8.17;;;;;;;10.52;100.00;100734.19;5011599;28;20338;-66
2023/04/19 07:24:20;;;;;;;9.10;7.93;;;;;;;10.68;100.00;100742.91;5020508;28;20223;-66
2023/04/19 07:26:46;;;;;;;8.70;6.57;;;;;;;10.43;100.00;100735.41;5023561;28;20255;-66
2023/04/19 07:29:11;;;;;;;8.10;7.30;;;;;;;10.47;100.00;100739.53;5008642;28;20179;-67
2023/04/19 07:31:36;;;;;;;7.87;7.07;;;;;;;10.60;100.00;100734.69;4984717;28;20326;-66
2023/04/19 07:34:02;;;;;;;7.90;7.10;;;;;;;10.75;100.00;100739.13;5014051;28;20182;-67
2023/04/19 07:36:27;;;;;;;9.20;6.90;;;;;;;10.88;100.00;100731.69;5029780;28;20198;-66
2023/04/19 07:38:52;;;;;;;7.63;6.83;;;;;;;10.90;100.00;100731.63;5031381;28;20224;-66
2023/04/19 07:41:18;;;;;;;8.03;6.30;;;;;;;10.90;100.00;100732.47;5010229;28;20357;-66
2023/04/19 07:43:43;;;;;;;7.50;6.30;;;;;;;10.81;100.00;100722.59;5021608;28;20232;-66
2023/04/19 07:46:12;;;;;;;7.43;6.63;;;;;;;10.48;100.00;100736.91;5031296;28;20185;-66
2023/04/19 07:48:38;;;;;;;7.80;5.90;;;;;;;10.45;100.00;100729.31;5030827;28;20576;-66
2023/04/19 07:51:10;;;;;;;8.37;6.57;;;;;;;10.57;100.00;100733.09;5006995;28;20229;-66
2023/04/19 07:53:38;;;;;;;7.00;6.03;;;;;;;10.52;100.00;100719.59;5025233;28;20185;-66
2023/04/19 07:56:03;;;;;;;7.23;5.60;;;;;;;10.49;100.00;100727.44;5032122;28;20228;-66
2023/04/19 07:58:28;;;;;;;6.33;5.73;;;;;;;10.58;100.00;100727.03;5018871;28;20540;-65
2023/04/19 08:00:54;;;;;;;6.23;5.30;;;;;;;10.68;100.00;100722.31;5009090;28;20217;-66
2023/04/19 08:03:20;;;;;;;6.00;5.47;;;;;;;10.70;100.00;100715.34;5021395;28;20197;-66
2023/04/19 08:05:46;;;;;;;6.30;5.70;;;;;;;10.57;100.00;100722.78;5028788;28;20636;-65
2023/04/19 08:08:11;;;;;;;5.73;5.23;;;;;;;10.57;100.00;100714.25;5013150;28;20183;-66
2023/04/19 08:10:36;;;;;;;5.10;4.60;;;;;;;10.51;100.00;100707.63;5006408;28;20229;-66
2023/04/19 08:13:02;;;;;;;7.50;5.10;;;;;;;10.76;100.00;100711.69;5028575;28;20555;-66
2023/04/19 08:15:27;;;;;;;5.87;5.20;;;;;;;10.94;100.00;100710.81;5027752;28;20197;-66
2023/04/19 08:17:52;;;;;;;5.30;4.60;;;;;;;11.02;100.00;100704.50;5012411;28;20268;-67
2023/04/19 08:20:18;;;;;;;5.73;5.13;;;;;;;10.87;100.00;100713.75;5004279;28;20189;-66
2023/04/19 08:22:44;;;;;;;8.73;4.77;;;;;;;11.07;100.00;100705.94;5028777;28;20907;-66
2023/04/19 08:25:10;;;;;;;4.90;4.50;;;;;;;11.04;100.00;100710.38;5027654;28;20179;-66
2023/04/19 08:27:35;;;;;;;6.87;4.97;;;;;;;11.36;100.00;100703.72;5012687;28;20548;-66
2023/04/19 08:30:00;;;;;;;6.30;4.80;;;;;;;11.56;100.00;100699.34;5014146;28;20604;-66
2023/04/19 08:32:26;;;;;;;5.23;4.73;;;;;;;11.86;100.00;100703.91;5018188;28;20623;-65
2023/04/19 08:34:51;;;;;;;7.07;4.40;;;;;;;12.07;100.00;100700.25;5017246;28;20180;-66
2023/04/19 08:37:17;;;;;;;5.80;4.47;;;;;;;12.18;100.00;100698.84;5031844;28;20544;-66
2023/04/19 08:39:42;;;;;;;5.77;4.93;;;;;;;12.00;100.00;100691.16;5013323;28;20237;-65
2023/04/19 08:42:08;;;;;;;5.27;4.40;;;;;;;11.83;100.00;100693.72;5019796;28;20275;-67
2023/04/19 08:44:37;;;;;;;4.70;4.30;;;;;;;12.12;100.00;100697.44;5027269;28;20190;-67
2023/04/19 08:47:03;;;;;;;6.63;5.00;;;;;;;11.84;100.00;100705.72;5012437;28;20232;-65
2023/04/19 08:49:28;;;;;;;7.17;4.73;;;;;;;11.77;100.00;100702.59;5011976;28;20222;-65
2023/04/19 08:51:56;;;;;;;4.90;4.40;;;;;;;12.30;100.00;100693.06;5016737;28;20228;-66
2023/04/19 08:54:22;;;;;;;4.97;4.57;;;;;;;12.31;98.22;100688.75;5013305;28;20174;-66
2023/04/19 08:56:47;;;;;;;4.73;4.30;;;;;;;12.19;100.00;100691.06;5012196;28;20740;-67
2023/04/19 08:59:13;;;;;;;4.47;4.07;;;;;;;12.00;99.12;100687.75;5026880;28;20637;-67
2023/04/19 09:01:38;;;;;;;4.10;3.73;;;;;;;12.05;99.02;100685.78;5003545;28;20350;-67
2023/04/19 09:04:06;;;;;;;5.10;4.03;;;;;;;11.95;98.38;100673.31;5028771;28;20219;-67
2023/04/19 09:06:38;;;;;;;4.73;4.20;;;;;;;12.02;97.57;100673.88;5019525;28;20186;-67
2023/04/19 09:09:21;;;;;;;4.37;3.63;;;;;;;12.14;98.11;100681.88;5011915;28;20294;-65
2023/04/19 09:11:46;;;;;;;5.63;3.70;;;;;;;12.36;96.89;100679.00;5016841;28;20230;-65
2023/04/19 09:14:16;;;;;;;4.07;3.67;;;;;;;12.65;94.61;100671.47;5013768;28;20201;-66
2023/04/19 09:16:43;;;;;;;5.53;3.90;;;;;;;12.75;96.15;100673.47;5011695;28;20213;-66
2023/04/19 09:19:08;;;;;;;5.97;4.27;;;;;;;12.79;95.12;100668.97;5011499;28;20702;-65
2023/04/19 09:21:34;;;;;;;5.83;3.80;;;;;;;12.87;93.85;100669.34;5015429;28;20339;-65
2023/04/19 09:24:00;;;;;;;6.57;4.40;;;;;;;12.78;92.72;100669.88;5016608;28;20191;-66
2023/04/19 09:26:28;;;;;;;4.17;3.70;;;;;;;12.83;92.58;100669.63;5027262;28;20540;-65
2023/04/19 09:29:06;;;;;;;3.97;3.60;;;;;;;13.20;92.14;100657.25;5012031;28;20187;-66
2023/04/19 09:31:36;;;;;;;6.20;3.87;;;;;;;13.50;90.13;100677.13;5024896;28;20228;-66
2023/04/19 09:34:13;;;;;;;7.43;4.27;;;;;;;13.52;88.16;100667.50;5019689;28;20321;-66
2023/04/19 09:36:38;;;;;;;4.80;3.93;;;;;;;13.40;88.50;100664.72;5020108;28;20672;-65
2023/04/19 09:39:04;;;;;;;4.60;3.80;;;;;;;13.92;85.66;100662.59;5022100;28;20187;-65
2023/04/19 09:41:31;;;;;;;3.90;3.60;;;;;;;13.79;84.64;100659.06;5016825;28;20225;-66
2023/04/19 09:44:10;;;;;;;5.53;3.63;;;;;;;13.78;86.68;100660.84;5019476;28;20209;-66
2023/04/19 09:46:36;;;;;;;4.40;4.00;;;;;;;13.71;85.49;100654.34;4999913;28;20176;-66
2023/04/19 09:49:18;;;;;;;7.10;3.80;;;;;;;13.95;84.34;100649.47;5010063;28;20584;-66
2023/04/19 09:51:45;;;;;;;5.40;3.57;;;;;;;13.87;84.04;100644.75;5018854;28;20336;-66
2023/04/19 09:54:12;;;;;;;4.70;3.87;;;;;;;14.51;78.99;100640.91;5028196;28;20698;-68
2023/04/19 09:56:38;;;;;;;4.83;3.80;;;;;;;14.46;76.11;100632.59;5030539;28;20194;-66
2023/04/19 09:59:05;;;;;;;5.43;3.50;;;;;;;14.08;78.60;100640.97;5016404;28;20191;-67
2023/04/19 10:01:34;;;;;;;3.60;3.23;;;;;;;13.91;74.68;100634.25;5017358;28;20222;-66
2023/04/19 10:04:05;;;;;;;4.07;3.33;;;;;;;13.92;75.36;100633.28;5020881;28;20187;-67
2023/04/19 10:06:33;;;;;;;7.30;3.80;;;;;;;13.86;71.54;100643.09;5015260;28;20190;-66
2023/04/19 10:09:02;;;;;;;4.47;3.73;;;;;;;13.53;76.48;100633.00;5017245;28;20590;-67
2023/04/19 10:11:37;;;;;;;4.80;3.63;;;;;;;13.93;72.27;100633.22;5015636;28;20232;-67
2023/04/19 10:14:04;;;;;;;4.43;3.77;;;;;;;14.66;71.22;100615.84;5014863;28;20261;-67
2023/04/19 10:16:30;;;;;;;5.73;4.00;;;;;;;15.51;66.09;100619.91;5031296;28;20198;-67
2023/04/19 10:18:56;;;;;;;4.43;3.43;;;;;;;15.87;57.49;100626.16;5030119;28;20190;-67
2023/04/19 10:21:22;;;;;;;3.40;3.10;;;;;;;15.79;55.79;100621.47;5023655;28;20222;-68
2023/04/19 10:23:48;;;;;;;5.13;3.90;;;;;;;14.92;59.81;100624.56;5020925;28;20416;-66
2023/04/19 10:26:13;;;;;;;6.40;3.93;;;;;;;14.91;62.62;100615.13;5031511;28;20262;-66
2023/04/19 10:28:40;;;;;;;5.43;3.90;;;;;;;16.03;57.49;100608.59;5014697;28;20183;-66
2023/04/19 10:31:11;;;;;;;5.77;4.30;;;;;;;16.13;54.03;100608.78;5013002;28;20222;-67
2023/04/19 10:33:37;;;;;;;5.40;3.73;;;;;;;16.05;53.06;100609.31;5022229;28;20235;-67
2023/04/19 10:36:07;;;;;;;3.63;3.33;;;;;;;15.68;56.17;100593.66;5015897;28;20576;-67
2023/04/19 10:38:41;;;;;;;4.27;3.87;;;;;;;15.19;57.24;100602.13;5014456;28;20328;-66
2023/04/19 10:41:15;;;;;;;3.83;3.10;;;;;;;14.68;59.78;100603.66;5020878;28;20368;-66
2023/04/19 10:43:46;;;;;;;5.23;3.83;;;;;;;14.53;61.90;100588.13;5020638;28;20258;-67
2023/04/19 10:46:35;;;;;;;4.50;4.10;;;;;;;14.40;61.53;100607.97;5014295;28;20213;-67
2023/04/19 10:49:02;;;;;;;4.47;3.70;;;;;;;14.48;62.03;100592.75;5013214;28;20230;-67
2023/04/19 10:51:32;;;;;;;5.43;4.10;;;;;;;14.06;63.42;100614.38;5014708;28;20213;-66
2023/04/19 10:53:59;;;;;;;5.70;4.17;;;;;;;13.53;69.31;100597.66;5017920;28;20233;-67
2023/04/19 10:56:33;;;;;;;4.87;3.93;;;;;;;13.98;67.97;100597.56;5028801;28;20281;-68
2023/04/19 10:58:59;;;;;;;4.20;3.80;;;;;;;14.05;64.54;100582.50;5012697;28;20231;-66
2023/04/19 11:01:44;;;;;;;4.20;3.80;;;;;;;13.87;63.64;100592.22;5003917;28;20226;-66
2023/04/19 11:04:10;;;;;;;5.37;4.27;;;;;;;13.60;65.49;100584.38;5016211;28;20187;-67
2023/04/19 11:06:37;;;;;;;5.00;4.50;;;;;;;13.51;64.28;100588.34;5013720;28;20682;-67
2023/04/19 11:09:06;;;;;;;4.90;4.30;;;;;;;13.61;67.98;100588.63;5012852;28;20643;-66
2023/04/19 11:11:37;;;;;;;5.90;4.10;;;;;;;13.21;65.53;100573.69;5015382;28;20260;-66
2023/04/19 11:14:03;;;;;;;4.97;3.90;;;;;;;13.48;64.06;100573.84;5008137;28;20174;-66